createdAt,value
2017-04-28T00:02:06.741Z,6.10
2017-04-28T00:04:36.230Z,6.00
2017-04-28T00:07:04.516Z,5.90
2017-04-28T00:09:32.813Z,5.80
2017-04-28T00:12:04.945Z,5.70
2017-04-28T00:14:33.233Z,5.70
2017-04-28T00:17:01.516Z,5.60
2017-04-28T00:19:29.832Z,5.50
2017-04-28T00:21:58.121Z,5.50
2017-04-28T00:24:26.427Z,5.40
2017-04-28T00:26:54.726Z,5.40
2017-04-28T00:29:24.461Z,5.30
2017-04-28T00:31:57.609Z,5.20
2017-04-28T00:34:25.885Z,5.20
2017-04-28T00:36:55.080Z,5.10
2017-04-28T00:39:24.061Z,5.00
2017-04-28T00:41:52.365Z,4.90
2017-04-28T00:44:21.091Z,5.00
2017-04-28T00:46:50.308Z,4.90
2017-04-28T00:49:18.606Z,4.80
2017-04-28T00:51:46.894Z,4.80
2017-04-28T00:54:16.117Z,4.70
2017-04-28T00:56:44.397Z,4.70
2017-04-28T00:59:13.060Z,4.70
2017-04-28T01:01:41.340Z,4.60
2017-04-28T01:04:09.645Z,4.60
2017-04-28T01:06:40.065Z,4.50
2017-04-28T01:09:09.108Z,4.50
2017-04-28T01:11:37.389Z,4.50
2017-04-28T01:14:06.189Z,4.40
2017-04-28T01:16:34.778Z,4.30
2017-04-28T01:19:03.057Z,4.30
2017-04-28T01:21:31.365Z,4.30
2017-04-28T01:23:59.656Z,4.30
2017-04-28T01:26:29.066Z,4.30
2017-04-28T01:28:57.365Z,4.20
2017-04-28T01:31:25.651Z,4.20
2017-04-28T01:33:53.993Z,4.20
2017-04-28T01:36:22.296Z,4.10
2017-04-28T01:38:51.394Z,4.10
2017-04-28T01:41:20.050Z,4.10
2017-04-28T01:43:48.327Z,4.10
2017-04-28T01:46:16.618Z,4.10
2017-04-28T01:48:45.293Z,4.10
2017-04-28T01:51:14.317Z,4.00
2017-04-28T01:53:42.606Z,4.00
2017-04-28T01:56:11.291Z,4.00
2017-04-28T01:58:39.567Z,3.90
2017-04-28T02:01:07.893Z,3.90
2017-04-28T02:03:36.655Z,3.90
2017-04-28T02:06:04.955Z,3.80
2017-04-28T02:08:33.258Z,3.80
2017-04-28T02:11:01.918Z,3.80
2017-04-28T02:13:30.540Z,3.80
2017-04-28T02:15:58.842Z,3.70
2017-04-28T02:18:27.160Z,3.70
2017-04-28T02:20:55.458Z,3.80
2017-04-28T02:23:23.753Z,3.80
2017-04-28T02:25:52.822Z,3.70
2017-04-28T02:28:21.202Z,3.70
2017-04-28T02:30:49.475Z,3.70
2017-04-28T02:33:17.762Z,3.70
2017-04-28T02:35:46.178Z,3.70
2017-04-28T02:38:14.470Z,3.70
2017-04-28T02:40:43.182Z,3.60
2017-04-28T02:43:11.510Z,3.60
2017-04-28T02:45:39.792Z,3.50
2017-04-28T02:48:08.084Z,3.40
2017-04-28T02:50:36.776Z,3.30
2017-04-28T02:53:05.057Z,3.30
2017-04-28T02:55:34.268Z,3.30
2017-04-28T02:58:03.634Z,3.20
2017-04-28T03:00:31.937Z,3.30
2017-04-28T03:03:01.021Z,3.20
2017-04-28T03:05:29.343Z,3.20
2017-04-28T03:07:57.633Z,3.20
2017-04-28T03:10:25.964Z,3.30
2017-04-28T03:12:55.401Z,3.30
2017-04-28T03:15:24.202Z,3.30
2017-04-28T03:17:52.765Z,3.30
2017-04-28T03:20:21.057Z,3.30
2017-04-28T03:22:50.277Z,3.30
2017-04-28T03:25:19.248Z,3.30
2017-04-28T03:27:47.548Z,3.30
2017-04-28T03:30:15.884Z,3.30
2017-04-28T03:32:44.207Z,3.30
2017-04-28T03:35:12.524Z,3.30
2017-04-28T03:37:41.395Z,3.20
2017-04-28T03:40:09.737Z,3.20
2017-04-28T03:42:38.019Z,3.20
2017-04-28T03:45:06.319Z,3.10
2017-04-28T03:47:35.057Z,3.20
2017-04-28T03:50:03.356Z,3.10
2017-04-28T03:52:31.653Z,3.10
2017-04-28T03:54:59.991Z,3.20
2017-04-28T03:57:28.289Z,3.20
2017-04-28T03:59:56.606Z,3.20
2017-04-28T04:02:24.949Z,3.20
2017-04-28T04:04:53.286Z,3.20
2017-04-28T04:07:22.550Z,3.30
2017-04-28T04:09:51.361Z,3.30
2017-04-28T04:12:19.641Z,3.30
2017-04-28T04:14:48.260Z,3.30
2017-04-28T04:17:16.544Z,3.30
2017-04-28T04:19:45.798Z,3.20
2017-04-28T04:22:14.560Z,3.20
2017-04-28T04:24:42.848Z,3.30
2017-04-28T04:27:11.140Z,3.20
2017-04-28T04:29:39.468Z,3.30
2017-04-28T04:32:08.399Z,3.30
2017-04-28T04:34:37.396Z,3.30
2017-04-28T04:37:05.930Z,3.30
2017-04-28T04:39:35.187Z,3.40
2017-04-28T04:42:03.478Z,3.40
2017-04-28T04:44:32.638Z,3.50
2017-04-28T04:47:01.761Z,3.50
2017-04-28T04:49:30.691Z,3.60
2017-04-28T04:51:59.035Z,3.70
2017-04-28T04:54:27.322Z,3.70
2017-04-28T04:56:55.601Z,3.80
2017-04-28T04:59:23.965Z,3.90
2017-04-28T05:01:52.997Z,4.00
2017-04-28T05:04:21.289Z,4.20
2017-04-28T05:06:49.600Z,4.40
2017-04-28T05:09:17.877Z,4.50
2017-04-28T05:11:47.046Z,4.70
2017-04-28T05:14:15.633Z,4.80
2017-04-28T05:16:43.936Z,5.00
2017-04-28T05:19:12.224Z,5.10
2017-04-28T05:21:40.569Z,5.30
2017-04-28T05:24:09.073Z,5.40
2017-04-28T05:26:38.166Z,5.60
2017-04-28T05:29:06.509Z,5.80
2017-04-28T05:31:34.807Z,5.80
2017-04-28T05:34:03.590Z,5.90
2017-04-28T05:36:33.227Z,6.00
2017-04-28T05:39:01.508Z,6.10
2017-04-28T05:41:29.828Z,6.30
2017-04-28T05:43:58.914Z,6.30
2017-04-28T05:46:27.196Z,6.50
2017-04-28T05:48:55.843Z,6.60
2017-04-28T05:51:24.845Z,6.70
2017-04-28T05:53:53.885Z,6.70
2017-04-28T05:56:23.406Z,6.80
2017-04-28T05:58:52.569Z,6.90
2017-04-28T06:01:20.866Z,7.00
2017-04-28T06:03:49.409Z,7.00
2017-04-28T06:06:18.450Z,7.00
2017-04-28T06:08:46.744Z,7.10
2017-04-28T06:11:15.612Z,7.20
2017-04-28T06:13:49.856Z,7.20
2017-04-28T06:16:19.353Z,7.40
2017-04-28T06:18:48.757Z,7.40
2017-04-28T06:21:17.053Z,7.50
2017-04-28T06:23:46.826Z,7.60
2017-04-28T06:26:15.133Z,7.70
2017-04-28T06:28:43.630Z,7.80
2017-04-28T06:31:12.473Z,7.90
2017-04-28T06:33:40.780Z,7.80
2017-04-28T06:36:09.255Z,8.00
2017-04-28T06:38:37.573Z,8.00
2017-04-28T06:41:07.200Z,8.10
2017-04-28T06:43:36.578Z,8.20
2017-04-28T06:46:04.903Z,8.20
2017-04-28T06:48:33.189Z,8.20
2017-04-28T06:51:01.468Z,8.30
2017-04-28T06:53:30.000Z,8.40
2017-04-28T06:55:59.143Z,8.50
2017-04-28T06:58:27.442Z,8.50
2017-04-28T07:00:56.534Z,8.50
2017-04-28T07:03:25.610Z,8.70
2017-04-28T07:05:55.005Z,8.80
2017-04-28T07:08:23.501Z,8.90
2017-04-28T07:10:51.788Z,8.90
2017-04-28T07:13:20.070Z,9.00
2017-04-28T07:15:48.435Z,9.20
2017-04-28T07:18:16.725Z,9.30
2017-04-28T07:20:45.010Z,9.50
2017-04-28T07:23:13.585Z,9.50
2017-04-28T07:25:41.880Z,9.60
2017-04-28T07:28:11.000Z,9.90
2017-04-28T07:30:39.430Z,9.80
2017-04-28T07:33:07.711Z,9.80
2017-04-28T07:35:36.001Z,9.80
2017-04-28T07:38:04.925Z,9.90
2017-04-28T07:40:33.234Z,9.90
2017-04-28T07:43:01.525Z,9.80
2017-04-28T07:45:29.894Z,9.90
2017-04-28T07:47:59.603Z,9.80
2017-04-28T07:50:27.933Z,9.90
2017-04-28T07:52:57.764Z,10.20
2017-04-28T07:55:26.050Z,10.10
2017-04-28T07:57:54.379Z,10.10
2017-04-28T08:00:23.869Z,10.10
2017-04-28T08:02:52.153Z,10.10
2017-04-28T08:05:21.793Z,9.90
2017-04-28T08:07:51.412Z,10.00
2017-04-28T08:10:19.697Z,10.10
2017-04-28T08:12:48.327Z,10.30
2017-04-28T08:15:16.604Z,10.40
2017-04-28T08:17:45.814Z,10.70
2017-04-28T08:20:15.056Z,10.80
2017-04-28T08:22:43.351Z,10.80
2017-04-28T08:25:11.633Z,10.90
2017-04-28T08:27:40.009Z,11.00
2017-04-28T08:30:08.305Z,11.10
2017-04-28T08:32:36.590Z,11.30
2017-04-28T08:35:05.001Z,11.40
2017-04-28T08:37:33.360Z,11.50
2017-04-28T08:40:01.650Z,11.60
2017-04-28T08:42:30.055Z,11.50
2017-04-28T08:44:59.072Z,11.40
2017-04-28T08:47:27.368Z,11.40
2017-04-28T08:49:55.708Z,11.40
2017-04-28T08:52:24.034Z,11.20
2017-04-28T08:54:52.322Z,11.10
2017-04-28T08:57:20.640Z,11.00
2017-04-28T08:59:48.994Z,11.00
2017-04-28T09:02:18.321Z,11.10
2017-04-28T09:04:46.605Z,11.20
2017-04-28T09:07:15.952Z,11.30
2017-04-28T09:09:45.009Z,11.30
2017-04-28T09:12:13.304Z,11.50
2017-04-28T09:14:42.125Z,11.40
2017-04-28T09:17:10.420Z,11.40
2017-04-28T09:19:39.791Z,11.30
2017-04-28T09:22:08.104Z,11.40
2017-04-28T09:24:37.149Z,11.40
2017-04-28T09:27:05.797Z,11.40
2017-04-28T09:29:34.115Z,11.60
2017-04-28T09:32:02.399Z,11.80
2017-04-28T09:34:30.713Z,12.00
2017-04-28T09:36:59.826Z,11.90
2017-04-28T09:39:28.112Z,12.10
2017-04-28T09:41:56.408Z,12.40
2017-04-28T09:44:24.720Z,12.50
2017-04-28T09:46:53.032Z,12.60
2017-04-28T09:49:21.309Z,12.80
2017-04-28T09:51:49.584Z,12.90
2017-04-28T09:54:18.005Z,13.00
2017-04-28T09:56:46.380Z,13.10
2017-04-28T09:59:14.766Z,13.00
2017-04-28T10:01:44.056Z,12.90
2017-04-28T10:04:12.336Z,12.90
2017-04-28T10:06:40.717Z,12.90
2017-04-28T10:09:09.297Z,12.90
2017-04-28T10:11:37.677Z,12.70
2017-04-28T10:14:05.955Z,12.60
2017-04-28T10:16:34.277Z,12.50
2017-04-28T10:19:03.304Z,12.50
2017-04-28T10:21:31.581Z,12.80
2017-04-28T10:23:59.895Z,12.70
2017-04-28T10:26:28.184Z,12.80
2017-04-28T10:28:56.472Z,12.90
2017-04-28T10:31:24.884Z,13.00
2017-04-28T10:33:53.165Z,13.20
2017-04-28T10:36:21.458Z,13.30
2017-04-28T10:38:50.063Z,13.40
2017-04-28T10:41:18.348Z,13.40
2017-04-28T10:43:46.703Z,13.40
2017-04-28T10:46:14.980Z,13.40
2017-04-28T10:48:43.365Z,13.50
2017-04-28T10:51:11.737Z,13.50
2017-04-28T10:53:40.012Z,13.50
2017-04-28T10:56:08.397Z,13.50
2017-04-28T10:58:36.777Z,13.50
2017-04-28T11:01:05.153Z,13.40
2017-04-28T11:03:33.424Z,13.40
2017-04-28T11:06:01.696Z,13.40
2017-04-28T11:08:30.000Z,13.30
2017-04-28T11:10:58.280Z,13.40
2017-04-28T11:13:27.331Z,13.50
2017-04-28T11:15:55.708Z,13.60
2017-04-28T11:18:24.089Z,13.70
2017-04-28T11:20:52.469Z,13.90
2017-04-28T11:23:20.749Z,13.90
2017-04-28T11:25:49.031Z,13.70
2017-04-28T11:28:17.308Z,13.70
2017-04-28T11:30:45.587Z,13.70
2017-04-28T11:33:13.956Z,13.80
2017-04-28T11:35:42.342Z,13.80
2017-04-28T11:38:10.741Z,13.70
2017-04-28T11:40:39.088Z,13.80
2017-04-28T11:43:07.480Z,13.90
2017-04-28T11:45:35.858Z,14.00
2017-04-28T11:48:04.237Z,14.00
2017-04-28T11:50:32.613Z,14.00
2017-04-28T11:53:00.893Z,14.00
2017-04-28T11:55:30.141Z,14.10
2017-04-28T11:57:58.439Z,14.30
2017-04-28T12:00:26.728Z,14.50
2017-04-28T12:02:55.004Z,14.70
2017-04-28T12:05:23.301Z,14.80
2017-04-28T12:07:51.793Z,14.90
2017-04-28T12:10:20.073Z,14.60
2017-04-28T12:12:48.348Z,14.40
2017-04-28T12:15:16.625Z,14.40
2017-04-28T12:17:45.021Z,14.40
2017-04-28T12:20:13.308Z,14.70
2017-04-28T12:22:41.589Z,14.70
2017-04-28T12:25:09.864Z,14.60
2017-04-28T12:27:38.223Z,14.50
2017-04-28T12:30:06.916Z,14.40
2017-04-28T12:32:35.196Z,14.50
2017-04-28T12:35:03.568Z,14.40
2017-04-28T12:37:31.943Z,14.20
2017-04-28T12:40:00.229Z,14.30
2017-04-28T12:42:30.120Z,14.00
2017-04-28T12:44:58.401Z,14.10
2017-04-28T12:47:26.677Z,14.00
2017-04-28T12:49:54.972Z,13.80
2017-04-28T12:52:23.659Z,13.70
2017-04-28T12:54:52.028Z,13.80
2017-04-28T12:57:20.311Z,13.90
2017-04-28T12:59:48.589Z,13.90
2017-04-28T13:02:16.869Z,13.80
2017-04-28T13:04:45.148Z,13.80
2017-04-28T13:07:13.521Z,13.90
2017-04-28T13:09:41.901Z,13.80
2017-04-28T13:12:10.277Z,13.70
2017-04-28T13:14:38.565Z,13.90
2017-04-28T13:17:06.839Z,14.00
2017-04-28T13:19:35.116Z,14.10
2017-04-28T13:22:03.392Z,14.20
2017-04-28T13:24:31.762Z,14.10
2017-04-28T13:27:00.344Z,14.30
2017-04-28T13:29:28.621Z,14.50
2017-04-28T13:31:57.011Z,14.50
2017-04-28T13:34:25.389Z,14.60
2017-04-28T13:36:53.756Z,14.50
2017-04-28T13:39:22.036Z,14.30
2017-04-28T13:41:50.312Z,14.30
2017-04-28T13:44:18.692Z,14.30
2017-04-28T13:46:46.972Z,14.30
2017-04-28T13:49:15.301Z,14.20
2017-04-28T13:51:44.320Z,14.00
2017-04-28T13:54:12.597Z,14.00
2017-04-28T13:56:40.873Z,13.90
2017-04-28T13:59:09.148Z,13.80
2017-04-28T14:01:37.424Z,14.00
2017-04-28T14:04:05.725Z,14.00
2017-04-28T14:06:34.052Z,13.80
2017-04-28T14:09:03.071Z,13.70
2017-04-28T14:11:32.214Z,13.70
2017-04-28T14:14:00.573Z,13.90
2017-04-28T14:16:28.849Z,14.00
2017-04-28T14:18:57.140Z,14.00
2017-04-28T14:21:25.611Z,14.00
2017-04-28T14:23:53.939Z,14.20
2017-04-28T14:26:22.960Z,14.10
2017-04-28T14:28:51.264Z,14.30
2017-04-28T14:31:19.634Z,14.20
2017-04-28T14:33:47.912Z,14.00
2017-04-28T14:36:16.289Z,13.90
2017-04-28T14:38:44.563Z,13.70
2017-04-28T14:41:12.851Z,13.70
2017-04-28T14:43:41.439Z,13.50
2017-04-28T14:46:09.907Z,13.30
2017-04-28T14:48:38.202Z,13.20
2017-04-28T14:51:06.560Z,13.00
2017-04-28T14:53:34.841Z,13.00
2017-04-28T14:56:03.132Z,13.00
2017-04-28T14:58:31.497Z,13.10
2017-04-28T15:00:59.772Z,13.20
2017-04-28T15:03:28.744Z,13.30
2017-04-28T15:05:57.020Z,13.30
2017-04-28T15:08:25.336Z,13.30
2017-04-28T15:10:53.704Z,13.20
2017-04-28T15:13:21.983Z,13.10
2017-04-28T15:15:50.357Z,13.00
2017-04-28T15:18:18.633Z,12.70
2017-04-28T15:20:46.916Z,12.40
2017-04-28T15:23:15.200Z,12.10
2017-04-28T15:25:43.516Z,11.70
2017-04-28T15:28:12.535Z,11.30
2017-04-28T15:30:40.824Z,10.80
2017-04-28T15:33:09.109Z,10.50
2017-04-28T15:35:37.388Z,10.40
2017-04-28T15:38:05.665Z,10.20
2017-04-28T15:40:33.940Z,10.00
2017-04-28T15:43:02.243Z,10.00
2017-04-28T15:45:30.515Z,9.80
2017-04-28T15:47:58.791Z,9.70
2017-04-28T15:50:27.555Z,9.70
2017-04-28T15:52:55.935Z,9.70
2017-04-28T15:55:24.311Z,9.70
2017-04-28T15:57:53.325Z,9.80
2017-04-28T16:00:21.603Z,9.90
2017-04-28T16:02:49.876Z,9.90
2017-04-28T16:05:18.156Z,10.00
2017-04-28T16:07:47.581Z,10.20
2017-04-28T16:10:15.861Z,10.30
2017-04-28T16:12:44.165Z,10.50
2017-04-28T16:15:12.517Z,10.60
2017-04-28T16:17:40.801Z,10.80
2017-04-28T16:20:09.089Z,11.00
2017-04-28T16:22:37.372Z,11.10
2017-04-28T16:25:05.725Z,11.30
2017-04-28T16:27:34.105Z,11.40
2017-04-28T16:30:02.592Z,11.50
2017-04-28T16:32:30.871Z,11.70
2017-04-28T16:34:59.156Z,11.70
2017-04-28T16:37:27.524Z,11.80
2017-04-28T16:39:55.806Z,11.80
2017-04-28T16:42:24.181Z,11.70
2017-04-28T16:44:52.557Z,11.60
2017-04-28T16:47:20.868Z,11.50
2017-04-28T16:49:49.144Z,11.30
2017-04-28T16:52:17.452Z,11.20
2017-04-28T16:54:45.741Z,11.20
2017-04-28T16:57:14.061Z,11.00
2017-04-28T16:59:42.339Z,10.90
2017-04-28T17:02:10.626Z,10.80
2017-04-28T17:04:38.977Z,10.80
2017-04-28T17:07:07.254Z,10.70
2017-04-28T17:09:35.632Z,10.80
2017-04-28T17:12:04.000Z,10.80
2017-04-28T17:14:32.272Z,10.80
2017-04-28T17:17:00.558Z,10.70
2017-04-28T17:19:28.839Z,10.80
2017-04-28T17:21:57.121Z,10.70
2017-04-28T17:24:25.497Z,10.70
2017-04-28T17:26:53.863Z,10.60
2017-04-28T17:29:22.356Z,10.60
2017-04-28T17:31:50.832Z,10.60
2017-04-28T17:34:19.118Z,10.60
2017-04-28T17:36:47.490Z,10.60
2017-04-28T17:39:15.874Z,10.50
2017-04-28T17:41:44.152Z,10.40
2017-04-28T17:44:12.532Z,10.30
2017-04-28T17:46:40.809Z,10.40
2017-04-28T17:49:09.219Z,10.30
2017-04-28T17:51:38.240Z,10.20
2017-04-28T17:54:06.552Z,10.20
2017-04-28T17:56:34.842Z,10.20
2017-04-28T17:59:03.124Z,10.20
2017-04-28T18:01:31.404Z,10.20
2017-04-28T18:03:59.866Z,10.20
2017-04-28T18:06:29.256Z,10.20
2017-04-28T18:08:57.536Z,10.10
2017-04-28T18:11:25.812Z,10.20
2017-04-28T18:13:54.084Z,10.10
2017-04-28T18:16:22.368Z,10.10
2017-04-28T18:18:50.651Z,10.00
2017-04-28T18:21:19.023Z,9.90
2017-04-28T18:23:47.297Z,9.90
2017-04-28T18:26:15.581Z,9.80
2017-04-28T18:28:43.884Z,9.80
2017-04-28T18:31:12.164Z,9.70
2017-04-28T18:33:40.438Z,9.70
2017-04-28T18:36:08.708Z,9.60
2017-04-28T18:38:36.981Z,9.60
2017-04-28T18:41:05.256Z,9.50
2017-04-28T18:43:33.621Z,9.50
2017-04-28T18:46:02.301Z,9.50
2017-04-28T18:48:30.577Z,9.50
2017-04-28T18:50:58.849Z,9.40
2017-04-28T18:53:27.124Z,9.40
2017-04-28T18:55:55.395Z,9.40
2017-04-28T18:58:23.679Z,9.30
2017-04-28T19:00:51.949Z,9.20
2017-04-28T19:03:20.264Z,9.20
2017-04-28T19:05:48.540Z,9.10
2017-04-28T19:08:16.813Z,9.10
2017-04-28T19:10:45.088Z,9.00
2017-04-28T19:13:13.453Z,9.00
2017-04-28T19:15:41.732Z,8.90
2017-04-28T19:18:10.105Z,8.90
2017-04-28T19:20:38.430Z,8.90
2017-04-28T19:23:07.582Z,8.90
2017-04-28T19:25:35.856Z,8.80
2017-04-28T19:28:04.128Z,8.80
2017-04-28T19:30:32.402Z,8.70
2017-04-28T19:33:00.787Z,8.60
2017-04-28T19:35:29.066Z,8.50
2017-04-28T19:37:57.448Z,8.50
2017-04-28T19:40:25.721Z,8.40
2017-04-28T19:42:54.200Z,8.30
2017-04-28T19:45:22.516Z,8.30
2017-04-28T19:47:50.789Z,8.20
2017-04-28T19:50:19.060Z,8.20
2017-04-28T19:52:47.412Z,8.20
2017-04-28T19:55:15.691Z,8.20
2017-04-28T19:57:44.071Z,8.30
2017-04-28T20:00:12.550Z,8.20
2017-04-28T20:02:40.929Z,8.20
2017-04-28T20:05:09.200Z,8.20
2017-04-28T20:07:37.482Z,8.20
2017-04-28T20:10:05.757Z,8.20
2017-04-28T20:12:34.032Z,8.20
2017-04-28T20:15:02.308Z,8.20
2017-04-28T20:17:30.584Z,8.30
2017-04-28T20:19:58.859Z,8.40
2017-04-28T20:22:27.280Z,8.50
2017-04-28T20:24:55.554Z,8.60
2017-04-28T20:27:23.823Z,8.60
2017-04-28T20:29:52.098Z,8.60
2017-04-28T20:32:20.395Z,8.60
2017-04-28T20:34:48.668Z,8.60
2017-04-28T20:37:16.957Z,8.60
2017-04-28T20:39:45.328Z,8.60
2017-04-28T20:42:13.596Z,8.60
2017-04-28T20:44:42.191Z,8.60
2017-04-28T20:47:10.472Z,8.60
2017-04-28T20:49:38.859Z,8.60
2017-04-28T20:52:07.128Z,8.60
2017-04-28T20:54:35.392Z,8.50
2017-04-28T20:57:03.661Z,8.50
2017-04-28T20:59:31.923Z,8.50
2017-04-28T21:02:00.188Z,8.50
2017-04-28T21:04:29.217Z,8.50
2017-04-28T21:06:57.535Z,8.50
2017-04-28T21:09:25.800Z,8.50
2017-04-28T21:11:54.064Z,8.50
2017-04-28T21:14:22.323Z,8.50
2017-04-28T21:16:50.591Z,8.50
2017-04-28T21:19:18.861Z,8.50
2017-04-28T21:21:47.159Z,8.40
2017-04-28T21:24:15.441Z,8.40
2017-04-28T21:26:43.709Z,8.40
2017-04-28T21:29:11.989Z,8.40
2017-04-28T21:31:40.256Z,8.40
2017-04-28T21:34:08.656Z,8.40
2017-04-28T21:36:37.033Z,8.40
2017-04-28T21:39:05.332Z,8.40
2017-04-28T21:41:33.591Z,8.30
2017-04-28T21:44:01.864Z,8.30
2017-04-28T21:46:30.131Z,8.30
2017-04-28T21:48:59.137Z,8.30
2017-04-28T21:51:27.631Z,8.30
2017-04-28T21:53:55.930Z,8.40
2017-04-28T21:56:24.199Z,8.40
2017-04-28T21:58:52.467Z,8.30
2017-04-28T22:01:20.732Z,8.30
2017-04-28T22:03:49.032Z,8.30
2017-04-28T22:06:17.415Z,8.30
2017-04-28T22:08:45.684Z,8.20
2017-04-28T22:11:13.968Z,8.20
2017-04-28T22:13:42.276Z,8.20
2017-04-28T22:16:27.212Z,8.10
2017-04-28T22:18:55.788Z,8.10
2017-04-28T22:21:24.063Z,8.00
2017-04-28T22:23:52.327Z,7.90
2017-04-28T22:26:21.769Z,7.80
2017-04-28T22:28:50.038Z,7.80
2017-04-28T22:31:18.312Z,7.70
2017-04-28T22:33:47.352Z,7.70
2017-04-28T22:36:15.732Z,7.70
2017-04-28T22:38:43.997Z,7.60
2017-04-28T22:41:12.264Z,7.60
2017-04-28T22:43:40.532Z,7.50
2017-04-28T22:46:08.939Z,7.50
2017-04-28T22:48:37.225Z,7.50
2017-04-28T22:51:05.497Z,7.50
2017-04-28T22:53:33.979Z,7.50
2017-04-28T22:56:02.248Z,7.50
2017-04-28T22:58:30.532Z,7.50
2017-04-28T23:00:58.796Z,7.50
2017-04-28T23:03:27.089Z,7.40
2017-04-28T23:05:55.352Z,7.40
2017-04-28T23:08:23.634Z,7.40
2017-04-28T23:10:51.908Z,7.30
2017-04-28T23:13:20.172Z,7.30
2017-04-28T23:15:48.436Z,7.30
2017-04-28T23:18:16.748Z,7.30
2017-04-28T23:20:45.224Z,7.20
2017-04-28T23:23:13.510Z,7.10
2017-04-28T23:25:41.812Z,7.10
2017-04-28T23:28:10.185Z,7.10
2017-04-28T23:30:38.536Z,7.10
2017-04-28T23:33:06.816Z,7.10
2017-04-28T23:35:35.998Z,7.10
2017-04-28T23:38:04.297Z,7.00
2017-04-28T23:40:32.560Z,7.00
2017-04-28T23:43:00.864Z,7.00
2017-04-28T23:45:29.133Z,6.90
2017-04-28T23:47:57.505Z,6.90
2017-04-28T23:50:25.775Z,6.90
2017-04-28T23:52:54.057Z,6.90
2017-04-28T23:55:22.320Z,6.90
2017-04-28T23:57:50.633Z,6.80
